sensor_id;sensor_type;location;lat;lon;timestamp;P1;durP1;ratioP1;P2;durP2;ratioP2
15340;SDS011;7770;52.158;5.372;2023-04-28T00:01:49;8.90;;;7.60;;
15340;SDS011;7770;52.158;5.372;2023-04-28T00:04:35;9.53;;;7.30;;
15340;SDS011;7770;52.158;5.372;2023-04-28T00:07:21;12.37;;;7.20;;
15340;SDS011;7770;52.158;5.372;2023-04-28T00:10:07;10.43;;;6.83;;
15340;SDS011;7770;52.158;5.372;2023-04-28T00:12:54;8.90;;;6.67;;
15340;SDS011;7770;52.158;5.372;2023-04-28T00:15:40;10.40;;;7.13;;
15340;SDS011;7770;52.158;5.372;2023-04-28T00:18:26;10.30;;;7.57;;
15340;SDS011;7770;52.158;5.372;2023-04-28T00:21:13;9.27;;;7.40;;
15340;SDS011;7770;52.158;5.372;2023-04-28T00:23:59;8.80;;;7.30;;
15340;SDS011;7770;52.158;5.372;2023-04-28T00:26:45;11.43;;;7.00;;
15340;SDS011;7770;52.158;5.372;2023-04-28T00:29:31;9.93;;;7.40;;
15340;SDS011;7770;52.158;5.372;2023-04-28T00:32:17;9.87;;;7.20;;
15340;SDS011;7770;52.158;5.372;2023-04-28T00:35:03;7.80;;;6.80;;
15340;SDS011;7770;52.158;5.372;2023-04-28T00:37:49;8.17;;;7.13;;
15340;SDS011;7770;52.158;5.372;2023-04-28T00:40:35;8.30;;;6.77;;
15340;SDS011;7770;52.158;5.372;2023-04-28T00:43:23;8.20;;;5.97;;
15340;SDS011;7770;52.158;5.372;2023-04-28T00:46:09;9.97;;;7.30;;
15340;SDS011;7770;52.158;5.372;2023-04-28T00:49:02;8.83;;;7.37;;
15340;SDS011;7770;52.158;5.372;2023-04-28T00:51:49;9.07;;;6.97;;
15340;SDS011;7770;52.158;5.372;2023-04-28T00:54:35;8.57;;;6.70;;
15340;SDS011;7770;52.158;5.372;2023-04-28T00:57:22;7.97;;;6.27;;
15340;SDS011;7770;52.158;5.372;2023-04-28T01:00:08;9.40;;;7.00;;
15340;SDS011;7770;52.158;5.372;2023-04-28T01:02:55;9.13;;;6.83;;
15340;SDS011;7770;52.158;5.372;2023-04-28T01:05:42;7.87;;;6.73;;
15340;SDS011;7770;52.158;5.372;2023-04-28T01:08:29;10.53;;;7.20;;
15340;SDS011;7770;52.158;5.372;2023-04-28T01:11:16;8.77;;;6.53;;
15340;SDS011;7770;52.158;5.372;2023-04-28T01:14:02;11.97;;;7.27;;
15340;SDS011;7770;52.158;5.372;2023-04-28T01:16:48;8.67;;;7.17;;
15340;SDS011;7770;52.158;5.372;2023-04-28T01:19:34;7.83;;;6.70;;
15340;SDS011;7770;52.158;5.372;2023-04-28T01:22:21;9.13;;;6.87;;
15340;SDS011;7770;52.158;5.372;2023-04-28T01:25:07;10.00;;;7.03;;
15340;SDS011;7770;52.158;5.372;2023-04-28T01:27:53;8.27;;;6.53;;
15340;SDS011;7770;52.158;5.372;2023-04-28T01:30:39;8.40;;;6.93;;
15340;SDS011;7770;52.158;5.372;2023-04-28T01:33:25;8.27;;;6.93;;
15340;SDS011;7770;52.158;5.372;2023-04-28T01:36:11;10.63;;;7.30;;
15340;SDS011;7770;52.158;5.372;2023-04-28T01:38:57;8.40;;;6.73;;
15340;SDS011;7770;52.158;5.372;2023-04-28T01:41:43;8.53;;;7.07;;
15340;SDS011;7770;52.158;5.372;2023-04-28T01:44:29;8.87;;;6.70;;
15340;SDS011;7770;52.158;5.372;2023-04-28T01:47:15;12.40;;;6.70;;
15340;SDS011;7770;52.158;5.372;2023-04-28T01:50:01;9.43;;;7.03;;
15340;SDS011;7770;52.158;5.372;2023-04-28T01:52:47;7.97;;;6.90;;
15340;SDS011;7770;52.158;5.372;2023-04-28T01:55:33;9.23;;;7.00;;
15340;SDS011;7770;52.158;5.372;2023-04-28T01:58:19;9.40;;;7.30;;
15340;SDS011;7770;52.158;5.372;2023-04-28T02:01:05;7.73;;;6.97;;
15340;SDS011;7770;52.158;5.372;2023-04-28T02:03:51;8.00;;;6.50;;
15340;SDS011;7770;52.158;5.372;2023-04-28T02:06:39;10.00;;;6.87;;
15340;SDS011;7770;52.158;5.372;2023-04-28T02:09:25;7.97;;;6.63;;
15340;SDS011;7770;52.158;5.372;2023-04-28T02:12:11;8.93;;;7.03;;
15340;SDS011;7770;52.158;5.372;2023-04-28T02:14:57;12.13;;;7.57;;
15340;SDS011;7770;52.158;5.372;2023-04-28T02:17:43;8.57;;;6.77;;
15340;SDS011;7770;52.158;5.372;2023-04-28T02:20:29;9.30;;;6.77;;
15340;SDS011;7770;52.158;5.372;2023-04-28T02:23:15;8.30;;;6.87;;
15340;SDS011;7770;52.158;5.372;2023-04-28T02:26:01;8.00;;;6.77;;
15340;SDS011;7770;52.158;5.372;2023-04-28T02:28:47;10.70;;;6.77;;
15340;SDS011;7770;52.158;5.372;2023-04-28T02:31:33;9.33;;;6.87;;
15340;SDS011;7770;52.158;5.372;2023-04-28T02:34:19;8.27;;;6.80;;
15340;SDS011;7770;52.158;5.372;2023-04-28T02:37:06;8.20;;;6.40;;
15340;SDS011;7770;52.158;5.372;2023-04-28T02:39:52;8.17;;;6.80;;
15340;SDS011;7770;52.158;5.372;2023-04-28T02:42:38;9.17;;;6.97;;
15340;SDS011;7770;52.158;5.372;2023-04-28T02:45:24;8.70;;;6.93;;
15340;SDS011;7770;52.158;5.372;2023-04-28T02:48:10;9.00;;;6.80;;
15340;SDS011;7770;52.158;5.372;2023-04-28T02:50:56;9.10;;;6.90;;
15340;SDS011;7770;52.158;5.372;2023-04-28T02:53:42;10.90;;;7.30;;
15340;SDS011;7770;52.158;5.372;2023-04-28T02:56:28;11.27;;;7.30;;
15340;SDS011;7770;52.158;5.372;2023-04-28T02:59:14;10.03;;;7.00;;
15340;SDS011;7770;52.158;5.372;2023-04-28T03:02:00;8.77;;;6.83;;
15340;SDS011;7770;52.158;5.372;2023-04-28T03:04:46;11.50;;;7.17;;
15340;SDS011;7770;52.158;5.372;2023-04-28T03:07:32;8.23;;;7.10;;
15340;SDS011;7770;52.158;5.372;2023-04-28T03:10:18;8.60;;;7.20;;
15340;SDS011;7770;52.158;5.372;2023-04-28T03:13:04;10.23;;;7.40;;
15340;SDS011;7770;52.158;5.372;2023-04-28T03:15:50;8.33;;;6.50;;
15340;SDS011;7770;52.158;5.372;2023-04-28T03:18:36;9.33;;;7.20;;
15340;SDS011;7770;52.158;5.372;2023-04-28T03:21:22;9.70;;;7.03;;
15340;SDS011;7770;52.158;5.372;2023-04-28T03:24:10;10.27;;;7.40;;
15340;SDS011;7770;52.158;5.372;2023-04-28T03:26:56;10.37;;;7.50;;
15340;SDS011;7770;52.158;5.372;2023-04-28T03:29:42;10.57;;;8.17;;
15340;SDS011;7770;52.158;5.372;2023-04-28T03:32:28;10.07;;;7.67;;
15340;SDS011;7770;52.158;5.372;2023-04-28T03:35:14;8.37;;;7.07;;
15340;SDS011;7770;52.158;5.372;2023-04-28T03:38:00;8.67;;;7.53;;
15340;SDS011;7770;52.158;5.372;2023-04-28T03:40:46;9.63;;;7.33;;
15340;SDS011;7770;52.158;5.372;2023-04-28T03:43:32;8.97;;;7.40;;
15340;SDS011;7770;52.158;5.372;2023-04-28T03:46:21;9.37;;;7.53;;
15340;SDS011;7770;52.158;5.372;2023-04-28T03:49:08;9.00;;;7.40;;
15340;SDS011;7770;52.158;5.372;2023-04-28T03:51:54;13.37;;;7.67;;
15340;SDS011;7770;52.158;5.372;2023-04-28T03:54:40;10.67;;;7.87;;
15340;SDS011;7770;52.158;5.372;2023-04-28T03:57:26;10.20;;;7.53;;
15340;SDS011;7770;52.158;5.372;2023-04-28T04:00:12;11.57;;;7.07;;
15340;SDS011;7770;52.158;5.372;2023-04-28T04:02:58;8.83;;;6.87;;
15340;SDS011;7770;52.158;5.372;2023-04-28T04:05:45;8.40;;;7.47;;
15340;SDS011;7770;52.158;5.372;2023-04-28T04:08:31;11.37;;;7.83;;
15340;SDS011;7770;52.158;5.372;2023-04-28T04:11:17;10.53;;;7.23;;
15340;SDS011;7770;52.158;5.372;2023-04-28T04:14:03;9.60;;;7.80;;
15340;SDS011;7770;52.158;5.372;2023-04-28T04:16:50;8.67;;;7.50;;
15340;SDS011;7770;52.158;5.372;2023-04-28T04:19:36;9.87;;;7.63;;
15340;SDS011;7770;52.158;5.372;2023-04-28T04:22:22;10.33;;;7.70;;
15340;SDS011;7770;52.158;5.372;2023-04-28T04:25:08;8.60;;;7.00;;
15340;SDS011;7770;52.158;5.372;2023-04-28T04:27:54;9.83;;;7.67;;
15340;SDS011;7770;52.158;5.372;2023-04-28T04:30:40;11.43;;;8.10;;
15340;SDS011;7770;52.158;5.372;2023-04-28T04:33:26;9.77;;;7.80;;
15340;SDS011;7770;52.158;5.372;2023-04-28T04:36:13;10.20;;;7.90;;
15340;SDS011;7770;52.158;5.372;2023-04-28T04:38:59;9.40;;;7.80;;
15340;SDS011;7770;52.158;5.372;2023-04-28T04:41:45;9.27;;;7.63;;
15340;SDS011;7770;52.158;5.372;2023-04-28T04:44:31;10.70;;;8.07;;
15340;SDS011;7770;52.158;5.372;2023-04-28T04:47:17;10.70;;;8.60;;
15340;SDS011;7770;52.158;5.372;2023-04-28T04:50:03;9.90;;;8.30;;
15340;SDS011;7770;52.158;5.372;2023-04-28T04:52:50;10.40;;;8.40;;
15340;SDS011;7770;52.158;5.372;2023-04-28T04:55:36;12.00;;;8.37;;
15340;SDS011;7770;52.158;5.372;2023-04-28T04:58:22;11.77;;;8.43;;
15340;SDS011;7770;52.158;5.372;2023-04-28T05:01:08;10.83;;;8.43;;
15340;SDS011;7770;52.158;5.372;2023-04-28T05:03:54;10.07;;;8.37;;
15340;SDS011;7770;52.158;5.372;2023-04-28T05:06:40;10.10;;;7.90;;
15340;SDS011;7770;52.158;5.372;2023-04-28T05:09:26;9.70;;;7.73;;
15340;SDS011;7770;52.158;5.372;2023-04-28T05:12:14;9.50;;;8.10;;
15340;SDS011;7770;52.158;5.372;2023-04-28T05:15:00;8.67;;;7.63;;
15340;SDS011;7770;52.158;5.372;2023-04-28T05:17:46;9.73;;;7.87;;
15340;SDS011;7770;52.158;5.372;2023-04-28T05:20:32;11.20;;;9.03;;
15340;SDS011;7770;52.158;5.372;2023-04-28T05:23:18;11.60;;;8.67;;
15340;SDS011;7770;52.158;5.372;2023-04-28T05:26:04;11.67;;;8.70;;
15340;SDS011;7770;52.158;5.372;2023-04-28T05:28:50;12.33;;;8.87;;
15340;SDS011;7770;52.158;5.372;2023-04-28T05:31:36;12.33;;;9.00;;
15340;SDS011;7770;52.158;5.372;2023-04-28T05:34:22;11.77;;;9.30;;
15340;SDS011;7770;52.158;5.372;2023-04-28T05:37:09;11.37;;;9.10;;
15340;SDS011;7770;52.158;5.372;2023-04-28T05:39:55;11.97;;;9.40;;
15340;SDS011;7770;52.158;5.372;2023-04-28T05:42:41;15.20;;;10.03;;
15340;SDS011;7770;52.158;5.372;2023-04-28T05:45:26;13.10;;;10.13;;
15340;SDS011;7770;52.158;5.372;2023-04-28T05:48:13;13.60;;;10.47;;
15340;SDS011;7770;52.158;5.372;2023-04-28T05:50:59;12.67;;;10.83;;
15340;SDS011;7770;52.158;5.372;2023-04-28T05:53:45;14.20;;;11.23;;
15340;SDS011;7770;52.158;5.372;2023-04-28T05:56:33;14.13;;;10.90;;
15340;SDS011;7770;52.158;5.372;2023-04-28T05:59:19;14.30;;;11.23;;
15340;SDS011;7770;52.158;5.372;2023-04-28T06:02:05;15.27;;;11.73;;
15340;SDS011;7770;52.158;5.372;2023-04-28T06:04:51;15.80;;;11.80;;
15340;SDS011;7770;52.158;5.372;2023-04-28T06:07:37;16.57;;;11.83;;
15340;SDS011;7770;52.158;5.372;2023-04-28T06:10:24;16.23;;;11.70;;
15340;SDS011;7770;52.158;5.372;2023-04-28T06:13:10;12.67;;;11.23;;
15340;SDS011;7770;52.158;5.372;2023-04-28T06:15:56;14.00;;;11.53;;
15340;SDS011;7770;52.158;5.372;2023-04-28T06:18:43;14.73;;;11.47;;
15340;SDS011;7770;52.158;5.372;2023-04-28T06:21:29;16.40;;;12.07;;
15340;SDS011;7770;52.158;5.372;2023-04-28T06:24:16;16.63;;;12.57;;
15340;SDS011;7770;52.158;5.372;2023-04-28T06:27:02;16.67;;;12.50;;
15340;SDS011;7770;52.158;5.372;2023-04-28T06:29:48;18.07;;;12.23;;
15340;SDS011;7770;52.158;5.372;2023-04-28T06:32:34;16.97;;;13.27;;
15340;SDS011;7770;52.158;5.372;2023-04-28T06:35:20;16.10;;;13.60;;
15340;SDS011;7770;52.158;5.372;2023-04-28T06:38:06;15.40;;;13.17;;
15340;SDS011;7770;52.158;5.372;2023-04-28T06:40:52;16.63;;;14.37;;
15340;SDS011;7770;52.158;5.372;2023-04-28T06:43:38;17.17;;;14.70;;
15340;SDS011;7770;52.158;5.372;2023-04-28T06:46:25;22.07;;;14.73;;
15340;SDS011;7770;52.158;5.372;2023-04-28T06:49:11;17.63;;;14.50;;
15340;SDS011;7770;52.158;5.372;2023-04-28T06:51:57;19.17;;;14.77;;
15340;SDS011;7770;52.158;5.372;2023-04-28T06:54:43;20.03;;;15.47;;
15340;SDS011;7770;52.158;5.372;2023-04-28T06:57:29;16.90;;;14.43;;
15340;SDS011;7770;52.158;5.372;2023-04-28T07:00:15;18.93;;;15.90;;
15340;SDS011;7770;52.158;5.372;2023-04-28T07:03:01;18.60;;;15.57;;
15340;SDS011;7770;52.158;5.372;2023-04-28T07:05:47;17.93;;;16.00;;
15340;SDS011;7770;52.158;5.372;2023-04-28T07:08:34;18.80;;;16.80;;
15340;SDS011;7770;52.158;5.372;2023-04-28T07:11:21;20.90;;;15.57;;
15340;SDS011;7770;52.158;5.372;2023-04-28T07:14:07;18.20;;;15.43;;
15340;SDS011;7770;52.158;5.372;2023-04-28T07:16:53;20.17;;;17.50;;
15340;SDS011;7770;52.158;5.372;2023-04-28T07:19:39;22.50;;;18.10;;
15340;SDS011;7770;52.158;5.372;2023-04-28T07:22:25;21.33;;;17.73;;
15340;SDS011;7770;52.158;5.372;2023-04-28T07:25:11;22.60;;;18.97;;
15340;SDS011;7770;52.158;5.372;2023-04-28T07:27:57;23.97;;;19.10;;
15340;SDS011;7770;52.158;5.372;2023-04-28T07:30:46;23.70;;;19.40;;
15340;SDS011;7770;52.158;5.372;2023-04-28T07:33:33;24.93;;;19.97;;
15340;SDS011;7770;52.158;5.372;2023-04-28T07:36:20;21.70;;;18.90;;
15340;SDS011;7770;52.158;5.372;2023-04-28T07:39:06;22.73;;;18.53;;
15340;SDS011;7770;52.158;5.372;2023-04-28T07:41:53;22.67;;;20.20;;
15340;SDS011;7770;52.158;5.372;2023-04-28T07:44:40;31.10;;;20.60;;
15340;SDS011;7770;52.158;5.372;2023-04-28T07:47:26;23.53;;;20.40;;
15340;SDS011;7770;52.158;5.372;2023-04-28T07:50:13;24.27;;;20.60;;
15340;SDS011;7770;52.158;5.372;2023-04-28T07:53:00;24.77;;;20.63;;
15340;SDS011;7770;52.158;5.372;2023-04-28T07:55:46;22.47;;;20.07;;
15340;SDS011;7770;52.158;5.372;2023-04-28T07:58:32;25.77;;;21.27;;
15340;SDS011;7770;52.158;5.372;2023-04-28T08:01:18;24.20;;;20.83;;
15340;SDS011;7770;52.158;5.372;2023-04-28T08:04:04;24.13;;;21.50;;
15340;SDS011;7770;52.158;5.372;2023-04-28T08:06:50;26.03;;;21.33;;
15340;SDS011;7770;52.158;5.372;2023-04-28T08:09:37;25.00;;;21.53;;
15340;SDS011;7770;52.158;5.372;2023-04-28T08:12:26;26.40;;;22.07;;
15340;SDS011;7770;52.158;5.372;2023-04-28T08:15:12;23.70;;;20.33;;
15340;SDS011;7770;52.158;5.372;2023-04-28T08:17:58;24.43;;;21.83;;
15340;SDS011;7770;52.158;5.372;2023-04-28T08:20:44;27.30;;;22.53;;
15340;SDS011;7770;52.158;5.372;2023-04-28T08:23:30;25.60;;;21.70;;
15340;SDS011;7770;52.158;5.372;2023-04-28T08:26:16;26.57;;;23.17;;
15340;SDS011;7770;52.158;5.372;2023-04-28T08:29:03;26.40;;;22.87;;
15340;SDS011;7770;52.158;5.372;2023-04-28T08:31:49;26.80;;;24.00;;
15340;SDS011;7770;52.158;5.372;2023-04-28T08:34:35;26.53;;;23.73;;
15340;SDS011;7770;52.158;5.372;2023-04-28T08:37:21;26.07;;;23.30;;
15340;SDS011;7770;52.158;5.372;2023-04-28T08:40:07;28.97;;;25.83;;
15340;SDS011;7770;52.158;5.372;2023-04-28T08:42:54;28.37;;;25.13;;
15340;SDS011;7770;52.158;5.372;2023-04-28T08:45:41;30.07;;;25.13;;
15340;SDS011;7770;52.158;5.372;2023-04-28T08:48:29;28.57;;;25.47;;
15340;SDS011;7770;52.158;5.372;2023-04-28T08:51:25;31.03;;;27.33;;
15340;SDS011;7770;52.158;5.372;2023-04-28T08:54:19;28.70;;;25.63;;
15340;SDS011;7770;52.158;5.372;2023-04-28T08:57:09;31.60;;;26.83;;
15340;SDS011;7770;52.158;5.372;2023-04-28T08:59:55;30.27;;;27.13;;
15340;SDS011;7770;52.158;5.372;2023-04-28T09:02:42;31.47;;;27.57;;
15340;SDS011;7770;52.158;5.372;2023-04-28T09:05:28;30.87;;;27.60;;
15340;SDS011;7770;52.158;5.372;2023-04-28T09:08:14;32.50;;;29.10;;
15340;SDS011;7770;52.158;5.372;2023-04-28T09:11:07;32.13;;;28.10;;
15340;SDS011;7770;52.158;5.372;2023-04-28T09:14:04;33.43;;;29.37;;
15340;SDS011;7770;52.158;5.372;2023-04-28T09:16:57;31.53;;;28.23;;
15340;SDS011;7770;52.158;5.372;2023-04-28T09:19:43;36.03;;;30.10;;
15340;SDS011;7770;52.158;5.372;2023-04-28T09:22:30;34.27;;;30.67;;
15340;SDS011;7770;52.158;5.372;2023-04-28T09:25:17;35.43;;;31.67;;
15340;SDS011;7770;52.158;5.372;2023-04-28T09:28:19;35.33;;;31.63;;
15340;SDS011;7770;52.158;5.372;2023-04-28T09:31:15;36.50;;;30.67;;
15340;SDS011;7770;52.158;5.372;2023-04-28T09:34:19;35.17;;;31.47;;
15340;SDS011;7770;52.158;5.372;2023-04-28T09:37:16;39.27;;;32.77;;
15340;SDS011;7770;52.158;5.372;2023-04-28T09:42:53;37.40;;;33.33;;
15340;SDS011;7770;52.158;5.372;2023-04-28T09:45:39;38.07;;;34.03;;
15340;SDS011;7770;52.158;5.372;2023-04-28T09:51:20;37.93;;;33.90;;
15340;SDS011;7770;52.158;5.372;2023-04-28T09:54:06;36.27;;;32.63;;
15340;SDS011;7770;52.158;5.372;2023-04-28T09:56:52;38.30;;;34.13;;
15340;SDS011;7770;52.158;5.372;2023-04-28T09:59:40;37.00;;;33.20;;
15340;SDS011;7770;52.158;5.372;2023-04-28T10:02:28;37.87;;;33.97;;
15340;SDS011;7770;52.158;5.372;2023-04-28T10:05:15;37.30;;;33.40;;
15340;SDS011;7770;52.158;5.372;2023-04-28T10:08:01;36.50;;;32.97;;
15340;SDS011;7770;52.158;5.372;2023-04-28T10:10:49;35.10;;;31.70;;
15340;SDS011;7770;52.158;5.372;2023-04-28T10:13:38;35.17;;;31.70;;
15340;SDS011;7770;52.158;5.372;2023-04-28T10:16:26;33.73;;;30.43;;
15340;SDS011;7770;52.158;5.372;2023-04-28T10:19:16;33.37;;;29.87;;
15340;SDS011;7770;52.158;5.372;2023-04-28T10:22:49;34.87;;;31.20;;
15340;SDS011;7770;52.158;5.372;2023-04-28T10:25:48;33.10;;;29.80;;
15340;SDS011;7770;52.158;5.372;2023-04-28T10:28:44;29.83;;;26.83;;
15340;SDS011;7770;52.158;5.372;2023-04-28T10:31:35;29.87;;;26.70;;
15340;SDS011;7770;52.158;5.372;2023-04-28T10:34:21;28.40;;;25.47;;
15340;SDS011;7770;52.158;5.372;2023-04-28T10:37:08;27.30;;;24.47;;
15340;SDS011;7770;52.158;5.372;2023-04-28T10:46:10;24.87;;;22.40;;
15340;SDS011;7770;52.158;5.372;2023-04-28T10:48:56;24.83;;;22.30;;
15340;SDS011;7770;52.158;5.372;2023-04-28T10:51:42;24.10;;;21.63;;
15340;SDS011;7770;52.158;5.372;2023-04-28T10:54:28;25.13;;;22.57;;
15340;SDS011;7770;52.158;5.372;2023-04-28T10:57:15;24.67;;;22.23;;
15340;SDS011;7770;52.158;5.372;2023-04-28T11:03:43;22.77;;;20.57;;
15340;SDS011;7770;52.158;5.372;2023-04-28T11:06:37;22.50;;;20.20;;
15340;SDS011;7770;52.158;5.372;2023-04-28T11:12:17;21.47;;;19.40;;
15340;SDS011;7770;52.158;5.372;2023-04-28T11:15:10;20.83;;;18.83;;
15340;SDS011;7770;52.158;5.372;2023-04-28T11:17:57;20.57;;;18.57;;
15340;SDS011;7770;52.158;5.372;2023-04-28T11:20:46;21.70;;;19.70;;
15340;SDS011;7770;52.158;5.372;2023-04-28T11:23:42;20.93;;;18.90;;
15340;SDS011;7770;52.158;5.372;2023-04-28T11:26:29;18.43;;;16.57;;
15340;SDS011;7770;52.158;5.372;2023-04-28T11:29:15;15.90;;;14.30;;
15340;SDS011;7770;52.158;5.372;2023-04-28T11:32:01;17.87;;;15.90;;
15340;SDS011;7770;52.158;5.372;2023-04-28T11:34:50;18.93;;;17.03;;
15340;SDS011;7770;52.158;5.372;2023-04-28T11:37:36;19.17;;;17.20;;
15340;SDS011;7770;52.158;5.372;2023-04-28T11:40:23;18.03;;;16.23;;
15340;SDS011;7770;52.158;5.372;2023-04-28T11:43:09;18.10;;;15.20;;
15340;SDS011;7770;52.158;5.372;2023-04-28T11:45:55;18.57;;;15.80;;
15340;SDS011;7770;52.158;5.372;2023-04-28T11:48:41;17.10;;;15.30;;
15340;SDS011;7770;52.158;5.372;2023-04-28T11:54:24;16.20;;;14.47;;
15340;SDS011;7770;52.158;5.372;2023-04-28T11:57:16;15.53;;;13.93;;
15340;SDS011;7770;52.158;5.372;2023-04-28T12:00:10;15.23;;;13.23;;
15340;SDS011;7770;52.158;5.372;2023-04-28T12:03:06;14.67;;;13.27;;
15340;SDS011;7770;52.158;5.372;2023-04-28T12:05:52;16.20;;;12.20;;
15340;SDS011;7770;52.158;5.372;2023-04-28T12:08:38;13.10;;;10.77;;
15340;SDS011;7770;52.158;5.372;2023-04-28T12:11:24;11.47;;;10.30;;
15340;SDS011;7770;52.158;5.372;2023-04-28T12:14:10;11.87;;;10.30;;
15340;SDS011;7770;52.158;5.372;2023-04-28T12:16:56;11.53;;;10.33;;
15340;SDS011;7770;52.158;5.372;2023-04-28T12:19:43;11.07;;;9.97;;
15340;SDS011;7770;52.158;5.372;2023-04-28T12:22:29;10.37;;;8.87;;
15340;SDS011;7770;52.158;5.372;2023-04-28T12:25:28;9.83;;;8.53;;
15340;SDS011;7770;52.158;5.372;2023-04-28T12:28:14;9.43;;;8.50;;
15340;SDS011;7770;52.158;5.372;2023-04-28T12:31:03;7.20;;;6.50;;
15340;SDS011;7770;52.158;5.372;2023-04-28T12:33:51;8.03;;;7.23;;
15340;SDS011;7770;52.158;5.372;2023-04-28T12:36:37;11.90;;;8.50;;
15340;SDS011;7770;52.158;5.372;2023-04-28T12:39:23;7.00;;;6.30;;
15340;SDS011;7770;52.158;5.372;2023-04-28T12:42:11;6.70;;;6.10;;
15340;SDS011;7770;52.158;5.372;2023-04-28T12:44:57;8.60;;;5.80;;
15340;SDS011;7770;52.158;5.372;2023-04-28T12:47:43;6.43;;;5.77;;
15340;SDS011;7770;52.158;5.372;2023-04-28T12:50:30;7.37;;;6.57;;
15340;SDS011;7770;52.158;5.372;2023-04-28T12:53:17;8.80;;;8.00;;
15340;SDS011;7770;52.158;5.372;2023-04-28T12:56:03;9.37;;;8.47;;
15340;SDS011;7770;52.158;5.372;2023-04-28T12:58:49;9.57;;;8.73;;
15340;SDS011;7770;52.158;5.372;2023-04-28T13:01:35;11.87;;;10.70;;
15340;SDS011;7770;52.158;5.372;2023-04-28T13:04:21;12.47;;;11.27;;
15340;SDS011;7770;52.158;5.372;2023-04-28T13:07:07;12.40;;;11.30;;
15340;SDS011;7770;52.158;5.372;2023-04-28T13:09:54;12.43;;;11.33;;
15340;SDS011;7770;52.158;5.372;2023-04-28T13:12:40;11.93;;;10.93;;
15340;SDS011;7770;52.158;5.372;2023-04-28T13:15:26;11.03;;;10.03;;
15340;SDS011;7770;52.158;5.372;2023-04-28T13:18:12;11.47;;;10.47;;
15340;SDS011;7770;52.158;5.372;2023-04-28T13:20:58;11.37;;;10.47;;
15340;SDS011;7770;52.158;5.372;2023-04-28T13:23:45;10.77;;;9.97;;
15340;SDS011;7770;52.158;5.372;2023-04-28T13:26:31;9.90;;;9.10;;
15340;SDS011;7770;52.158;5.372;2023-04-28T13:29:17;9.83;;;9.13;;
15340;SDS011;7770;52.158;5.372;2023-04-28T13:32:03;9.20;;;8.50;;
15340;SDS011;7770;52.158;5.372;2023-04-28T13:34:50;9.97;;;9.17;;
15340;SDS011;7770;52.158;5.372;2023-04-28T13:37:36;9.00;;;8.27;;
15340;SDS011;7770;52.158;5.372;2023-04-28T13:40:27;8.47;;;7.87;;
15340;SDS011;7770;52.158;5.372;2023-04-28T13:43:13;8.43;;;7.73;;
15340;SDS011;7770;52.158;5.372;2023-04-28T13:45:59;8.50;;;7.90;;
15340;SDS011;7770;52.158;5.372;2023-04-28T13:48:45;8.53;;;7.93;;
15340;SDS011;7770;52.158;5.372;2023-04-28T13:51:31;8.43;;;7.73;;
15340;SDS011;7770;52.158;5.372;2023-04-28T13:54:18;8.43;;;7.83;;
15340;SDS011;7770;52.158;5.372;2023-04-28T13:57:04;8.10;;;7.50;;
15340;SDS011;7770;52.158;5.372;2023-04-28T13:59:50;8.17;;;7.57;;
15340;SDS011;7770;52.158;5.372;2023-04-28T14:02:36;6.90;;;6.40;;
15340;SDS011;7770;52.158;5.372;2023-04-28T14:05:23;6.10;;;5.70;;
15340;SDS011;7770;52.158;5.372;2023-04-28T14:08:10;6.60;;;6.10;;
15340;SDS011;7770;52.158;5.372;2023-04-28T14:10:56;6.30;;;5.80;;
15340;SDS011;7770;52.158;5.372;2023-04-28T14:13:42;7.07;;;6.47;;
15340;SDS011;7770;52.158;5.372;2023-04-28T14:16:28;7.20;;;6.60;;
15340;SDS011;7770;52.158;5.372;2023-04-28T14:19:14;7.20;;;6.60;;
15340;SDS011;7770;52.158;5.372;2023-04-28T14:22:02;5.83;;;5.33;;
15340;SDS011;7770;52.158;5.372;2023-04-28T14:24:49;5.80;;;5.30;;
15340;SDS011;7770;52.158;5.372;2023-04-28T14:27:35;6.07;;;5.57;;
15340;SDS011;7770;52.158;5.372;2023-04-28T14:30:21;5.97;;;5.47;;
15340;SDS011;7770;52.158;5.372;2023-04-28T14:33:08;7.30;;;6.60;;
15340;SDS011;7770;52.158;5.372;2023-04-28T14:35:54;8.40;;;7.60;;
15340;SDS011;7770;52.158;5.372;2023-04-28T14:38:40;9.33;;;8.40;;
15340;SDS011;7770;52.158;5.372;2023-04-28T14:41:26;11.33;;;10.13;;
15340;SDS011;7770;52.158;5.372;2023-04-28T14:44:12;12.03;;;10.40;;
15340;SDS011;7770;52.158;5.372;2023-04-28T14:46:58;14.57;;;11.93;;
15340;SDS011;7770;52.158;5.372;2023-04-28T14:49:46;14.67;;;12.63;;
15340;SDS011;7770;52.158;5.372;2023-04-28T14:52:32;15.37;;;12.93;;
15340;SDS011;7770;52.158;5.372;2023-04-28T14:55:19;19.27;;;14.83;;
15340;SDS011;7770;52.158;5.372;2023-04-28T14:58:05;18.13;;;14.20;;
15340;SDS011;7770;52.158;5.372;2023-04-28T15:00:51;18.43;;;14.43;;
15340;SDS011;7770;52.158;5.372;2023-04-28T15:03:37;18.43;;;14.50;;
15340;SDS011;7770;52.158;5.372;2023-04-28T15:06:23;18.83;;;14.23;;
15340;SDS011;7770;52.158;5.372;2023-04-28T15:09:09;18.67;;;14.07;;
15340;SDS011;7770;52.158;5.372;2023-04-28T15:11:56;18.37;;;13.40;;
15340;SDS011;7770;52.158;5.372;2023-04-28T15:14:42;19.33;;;13.80;;
15340;SDS011;7770;52.158;5.372;2023-04-28T15:17:28;18.53;;;14.37;;
15340;SDS011;7770;52.158;5.372;2023-04-28T15:20:15;19.50;;;14.23;;
15340;SDS011;7770;52.158;5.372;2023-04-28T15:23:01;21.00;;;14.83;;
15340;SDS011;7770;52.158;5.372;2023-04-28T15:25:47;22.80;;;15.40;;
15340;SDS011;7770;52.158;5.372;2023-04-28T15:28:37;20.80;;;15.17;;
15340;SDS011;7770;52.158;5.372;2023-04-28T15:31:23;23.10;;;15.57;;
15340;SDS011;7770;52.158;5.372;2023-04-28T15:34:10;23.50;;;16.07;;
15340;SDS011;7770;52.158;5.372;2023-04-28T15:36:56;23.37;;;16.03;;
15340;SDS011;7770;52.158;5.372;2023-04-28T15:39:42;24.90;;;16.40;;
15340;SDS011;7770;52.158;5.372;2023-04-28T15:42:28;21.57;;;16.47;;
15340;SDS011;7770;52.158;5.372;2023-04-28T15:45:15;23.67;;;17.27;;
15340;SDS011;7770;52.158;5.372;2023-04-28T15:48:03;22.50;;;16.87;;
15340;SDS011;7770;52.158;5.372;2023-04-28T15:50:50;23.10;;;16.80;;
15340;SDS011;7770;52.158;5.372;2023-04-28T15:53:37;20.73;;;16.10;;
15340;SDS011;7770;52.158;5.372;2023-04-28T15:56:23;24.10;;;17.03;;
15340;SDS011;7770;52.158;5.372;2023-04-28T15:59:09;23.83;;;16.33;;
15340;SDS011;7770;52.158;5.372;2023-04-28T16:01:59;24.10;;;17.83;;
15340;SDS011;7770;52.158;5.372;2023-04-28T16:04:45;23.77;;;17.63;;
15340;SDS011;7770;52.158;5.372;2023-04-28T16:07:31;24.50;;;18.67;;
15340;SDS011;7770;52.158;5.372;2023-04-28T16:10:23;25.30;;;18.70;;
15340;SDS011;7770;52.158;5.372;2023-04-28T16:13:09;23.67;;;18.27;;
15340;SDS011;7770;52.158;5.372;2023-04-28T16:15:56;27.47;;;19.83;;
15340;SDS011;7770;52.158;5.372;2023-04-28T16:18:43;24.90;;;18.27;;
15340;SDS011;7770;52.158;5.372;2023-04-28T16:21:29;23.27;;;18.17;;
15340;SDS011;7770;52.158;5.372;2023-04-28T16:24:16;26.23;;;17.67;;
15340;SDS011;7770;52.158;5.372;2023-04-28T16:27:02;24.27;;;18.47;;
15340;SDS011;7770;52.158;5.372;2023-04-28T16:29:48;23.20;;;18.70;;
15340;SDS011;7770;52.158;5.372;2023-04-28T16:32:34;24.80;;;18.27;;
15340;SDS011;7770;52.158;5.372;2023-04-28T16:35:23;22.43;;;17.90;;
15340;SDS011;7770;52.158;5.372;2023-04-28T16:38:09;24.63;;;17.90;;
15340;SDS011;7770;52.158;5.372;2023-04-28T16:40:56;21.10;;;17.30;;
15340;SDS011;7770;52.158;5.372;2023-04-28T16:43:42;26.03;;;18.27;;
15340;SDS011;7770;52.158;5.372;2023-04-28T16:46:28;21.93;;;17.70;;
15340;SDS011;7770;52.158;5.372;2023-04-28T16:49:14;25.13;;;17.27;;
15340;SDS011;7770;52.158;5.372;2023-04-28T16:52:01;22.13;;;17.27;;
15340;SDS011;7770;52.158;5.372;2023-04-28T16:54:48;26.00;;;17.23;;
15340;SDS011;7770;52.158;5.372;2023-04-28T16:57:34;23.13;;;17.33;;
15340;SDS011;7770;52.158;5.372;2023-04-28T17:00:21;21.73;;;17.37;;
15340;SDS011;7770;52.158;5.372;2023-04-28T17:03:07;24.37;;;18.80;;
15340;SDS011;7770;52.158;5.372;2023-04-28T17:05:53;17.47;;;14.67;;